Time;durP1;ratioP1;P1;durP2;ratioP2;P2;SDS_P1;SDS_P2;PMS_P1;PMS_P2;Temp;Humidity;BMP_temperature;BMP_pressure;BME280_temperature;BME280_humidity;BME280_pressure;Samples;Min_cycle;Max_cycle;Signal;HPM_P1;HPM_P2
2022/04/07 00:00:57;;;;;;;11.55;4.38;;;;;;;8.61;nan;101948.50;10357561;28;20420;-72
2022/04/07 00:05:59;;;;;;;8.25;4.18;;;;;;;8.63;nan;101957.31;10360054;28;20042;-74
2022/04/07 00:11:01;;;;;;;7.68;3.60;;;;;;;8.65;nan;101960.00;10358530;28;20056;-74
2022/04/07 00:16:02;;;;;;;9.02;3.85;;;;;;;8.66;nan;101965.28;10358888;28;20045;-73
2022/04/07 00:21:11;;;;;;;7.18;3.35;;;;;;;8.64;nan;101951.25;10358912;28;20048;-72
2022/04/07 00:26:13;;;;;;;9.40;3.50;;;;;;;8.68;nan;101970.56;10359146;28;20044;-73
2022/04/07 00:31:15;;;;;;;9.55;3.53;;;;;;;8.65;nan;101963.47;10352039;28;20524;-73
2022/04/07 00:36:16;;;;;;;8.15;3.33;;;;;;;8.63;nan;101957.31;10353044;28;20069;-73
2022/04/07 00:41:18;;;;;;;7.63;3.50;;;;;;;8.57;nan;101917.88;10355340;28;20046;-74
2022/04/07 00:46:20;;;;;;;8.65;3.38;;;;;;;8.52;nan;101895.00;10355952;28;20050;-74
2022/04/07 00:51:21;;;;;;;9.75;3.40;;;;;;;8.52;nan;101895.88;10351536;28;20061;-74
2022/04/07 00:56:25;;;;;;;6.97;3.38;;;;;;;8.50;nan;101889.72;10357403;28;20049;-74
2022/04/07 01:01:28;;;;;;;10.13;3.47;;;;;;;8.51;nan;101888.88;10355871;28;20052;-74
2022/04/07 01:06:30;;;;;;;9.52;3.60;;;;;;;8.58;nan;101914.44;10351796;28;20494;-74
2022/04/07 01:11:34;;;;;;;7.10;3.17;;;;;;;8.60;nan;101925.84;10355727;28;20053;-73
2022/04/07 01:16:40;;;;;;;6.63;4.07;;;;;;;8.57;nan;101917.88;10335515;28;20046;-74
2022/04/07 01:21:42;;;;;;;11.10;4.40;;;;;;;8.37;nan;101830.84;10337840;28;20078;-71
2022/04/07 01:26:46;;;;;;;7.45;3.83;;;;;;;8.16;nan;101728.16;10353602;28;20124;-71
2022/04/07 01:31:47;;;;;;;8.23;4.18;;;;;;;8.03;nan;101685.94;10354779;28;20045;-71
2022/04/07 01:36:53;;;;;;;9.82;4.40;;;;;;;7.99;nan;101659.63;10355359;28;20041;-72
2022/04/07 01:41:57;;;;;;;8.27;4.57;;;;;;;7.98;nan;101658.75;10349481;28;20053;-73
2022/04/07 01:46:59;;;;;;;9.23;4.30;;;;;;;8.08;nan;101699.16;10353974;28;20045;-72
2022/04/07 01:52:03;;;;;;;8.82;4.18;;;;;;;8.17;nan;101738.66;10360822;28;20322;-73
2022/04/07 01:57:04;;;;;;;8.80;3.75;;;;;;;8.25;nan;101771.19;10361345;28;20417;-72
2022/04/07 02:02:06;;;;;;;7.32;3.50;;;;;;;8.34;nan;101801.13;10361982;28;20057;-73
2022/04/07 02:07:08;;;;;;;8.48;3.70;;;;;;;8.36;nan;101816.03;10362526;28;20064;-73
2022/04/07 02:12:09;;;;;;;5.60;3.17;;;;;;;8.43;nan;101840.66;10361482;28;20056;-73
2022/04/07 02:17:11;;;;;;;5.38;2.88;;;;;;;8.28;nan;101781.75;10342715;28;20049;-70
2022/04/07 02:22:13;;;;;;;5.32;2.90;;;;;;;8.17;nan;101725.63;10358976;28;20042;-72
2022/04/07 02:27:15;;;;;;;6.65;3.30;;;;;;;8.19;nan;101736.13;10343152;28;20460;-73
2022/04/07 02:32:18;;;;;;;6.53;3.20;;;;;;;8.24;nan;101750.25;10348784;28;20041;-72
2022/04/07 02:37:20;;;;;;;8.07;2.75;;;;;;;8.23;nan;101751.97;10340976;28;20450;-72
2022/04/07 02:42:21;;;;;;;8.52;3.33;;;;;;;8.13;nan;101705.44;10360831;28;20459;-70
2022/04/07 02:47:34;;;;;;;7.88;3.63;;;;;;;7.97;nan;101638.69;10359999;28;20429;-72
2022/04/07 02:52:38;;;;;;;13.82;3.45;;;;;;;7.96;nan;101634.31;10357721;28;20045;-72
2022/04/07 02:57:41;;;;;;;8.77;2.75;;;;;;;7.96;nan;101643.03;10359814;28;20030;-74
2022/04/07 03:02:43;;;;;;;7.53;3.10;;;;;;;7.94;nan;101639.47;10339037;28;20042;-72
2022/04/07 03:07:44;;;;;;;7.38;3.25;;;;;;;7.93;nan;101624.66;10358659;28;20053;-73
2022/04/07 03:12:46;;;;;;;9.02;2.70;;;;;;;7.93;nan;101624.66;10356375;28;20046;-73
2022/04/07 03:17:48;;;;;;;5.68;2.75;;;;;;;7.89;nan;101601.88;10358920;28;20054;-74
2022/04/07 03:22:49;;;;;;;5.25;2.63;;;;;;;7.81;nan;101572.00;10357480;28;20049;-74
2022/04/07 03:27:51;;;;;;;9.38;3.33;;;;;;;7.76;nan;101550.97;10357122;28;20038;-74
2022/04/07 03:32:52;;;;;;;5.18;2.63;;;;;;;7.73;nan;101529.06;10357676;28;20053;-74
2022/04/07 03:37:54;;;;;;;7.72;2.67;;;;;;;7.67;nan;101508.88;10357034;28;20038;-73
2022/04/07 03:42:56;;;;;;;9.10;3.40;;;;;;;7.64;nan;101498.34;10357541;28;20567;-73
2022/04/07 03:47:58;;;;;;;8.48;3.83;;;;;;;7.67;nan;101502.75;10356604;28;20077;-73
2022/04/07 03:53:00;;;;;;;7.90;3.00;;;;;;;7.73;nan;101540.41;10340630;28;20069;-75
2022/04/07 03:58:01;;;;;;;6.50;2.83;;;;;;;7.80;nan;101551.97;10358933;28;20042;-74
2022/04/07 04:03:03;;;;;;;6.15;2.50;;;;;;;7.93;nan;101611.63;10356495;28;20049;-74
2022/04/07 04:08:05;;;;;;;5.55;2.13;;;;;;;7.94;nan;101613.41;10359336;28;20050;-74
2022/04/07 04:13:07;;;;;;;4.28;1.95;;;;;;;7.86;nan;101578.28;10356432;28;20474;-74
2022/04/07 04:18:08;;;;;;;5.78;2.05;;;;;;;7.76;nan;101535.31;10357131;28;20563;-74
2022/04/07 04:23:10;;;;;;;8.20;2.05;;;;;;;7.71;nan;101515.09;10356358;28;20053;-74
2022/04/07 04:28:12;;;;;;;5.88;1.60;;;;;;;7.72;nan;101519.50;10357437;28;20037;-74
2022/04/07 04:33:14;;;;;;;6.45;1.50;;;;;;;7.72;nan;101517.75;10354515;28;20046;-75
2022/04/07 04:38:15;;;;;;;4.07;1.70;;;;;;;7.69;nan;101498.50;10356922;28;20042;-75
2022/04/07 04:43:17;;;;;;;5.00;1.60;;;;;;;7.68;nan;101501.94;10355380;28;20057;-74
2022/04/07 04:48:19;;;;;;;6.22;1.80;;;;;;;7.65;nan;101487.06;10356332;28;20050;-73
2022/04/07 04:53:20;;;;;;;5.75;1.80;;;;;;;7.68;nan;101494.13;10353811;28;20069;-74
2022/04/07 04:58:23;;;;;;;9.07;2.00;;;;;;;7.78;nan;101546.69;10352415;28;20070;-73
2022/04/07 05:03:24;;;;;;;4.32;2.00;;;;;;;7.88;nan;101581.88;10356121;28;20158;-73
2022/04/07 05:08:26;;;;;;;7.40;2.30;;;;;;;7.90;nan;101590.63;10356921;28;20076;-73
2022/04/07 05:13:27;;;;;;;5.13;2.20;;;;;;;7.94;nan;101602.97;10354140;28;21025;-73
2022/04/07 05:18:29;;;;;;;10.00;2.28;;;;;;;8.06;nan;101651.22;10356174;28;20069;-73
2022/04/07 05:23:31;;;;;;;12.48;2.35;;;;;;;8.10;nan;101668.78;10340049;28;20449;-73
2022/04/07 05:28:32;;;;;;;6.35;2.58;;;;;;;8.14;nan;101686.38;10363977;28;20060;-74
2022/04/07 05:33:34;;;;;;;8.25;2.40;;;;;;;8.23;nan;101720.66;10363552;28;20077;-74
2022/04/07 05:38:35;;;;;;;14.20;2.75;;;;;;;8.28;nan;101747.81;10357225;28;20049;-74
2022/04/07 05:43:37;;;;;;;7.85;2.30;;;;;;;8.26;nan;101731.22;10344820;28;20052;-75
2022/04/07 05:48:39;;;;;;;15.57;2.40;;;;;;;8.32;nan;101756.69;10356454;28;20291;-73
2022/04/07 05:53:40;;;;;;;13.35;2.17;;;;;;;8.31;nan;101749.69;10353891;28;20049;-73
2022/04/07 05:58:44;;;;;;;8.60;2.17;;;;;;;8.17;nan;101691.72;10322924;28;20478;-74
2022/04/07 06:03:46;;;;;;;12.45;2.35;;;;;;;8.20;nan;101699.66;10338272;28;20552;-74
2022/04/07 06:08:57;;;;;;;11.10;2.97;;;;;;;8.24;nan;101711.09;10322961;28;20785;-74
2022/04/07 06:13:59;;;;;;;9.55;2.67;;;;;;;8.24;nan;101716.31;10339053;28;20189;-73
2022/04/07 06:19:01;;;;;;;11.95;2.10;;;;;;;8.19;nan;101697.88;10313512;28;20069;-72
2022/04/07 06:24:02;;;;;;;6.25;2.00;;;;;;;8.07;nan;101639.97;10342826;28;20184;-71
2022/04/07 06:29:04;;;;;;;14.27;2.78;;;;;;;7.88;nan;101565.31;10338854;28;20496;-71
2022/04/07 06:34:06;;;;;;;13.88;2.40;;;;;;;7.74;nan;101504.78;10335587;28;20046;-70
2022/04/07 06:39:09;;;;;;;6.82;2.10;;;;;;;7.70;nan;101482.03;10335130;28;20053;-71
2022/04/07 06:44:11;;;;;;;9.73;2.40;;;;;;;7.63;nan;101456.53;10335213;28;20050;-71
2022/04/07 06:49:12;;;;;;;7.97;2.03;;;;;;;7.56;nan;101426.75;10338529;28;20048;-71
2022/04/07 06:54:14;;;;;;;6.93;1.80;;;;;;;7.55;nan;101411.94;10342946;28;20037;-71
2022/04/07 06:59:16;;;;;;;7.90;1.83;;;;;;;7.56;nan;101425.00;10344503;28;20050;-72
2022/04/07 07:04:17;;;;;;;5.03;2.10;;;;;;;7.58;nan;101430.28;10342737;28;20046;-70
2022/04/07 07:09:19;;;;;;;8.40;1.90;;;;;;;7.59;nan;101432.94;10342117;28;20045;-71
2022/04/07 07:14:21;;;;;;;10.30;1.60;;;;;;;7.59;nan;101434.69;10336113;28;20053;-71
2022/04/07 07:19:28;;;;;;;6.05;1.58;;;;;;;7.68;nan;101462.84;10336967;28;20046;-71
2022/04/07 07:24:29;;;;;;;9.10;1.88;;;;;;;7.71;nan;101476.00;10336621;28;20569;-71
2022/04/07 07:29:31;;;;;;;0.52;0.38;;;;;;;5.13;nan;100421.81;10336825;28;20513;-71
2022/04/07 07:34:33;;;;;;;0.73;0.30;;;;;;;4.24;nan;100067.09;10333694;28;20076;-71
2022/04/07 07:39:34;;;;;;;3.95;0.50;;;;;;;4.02;nan;99971.41;10332951;28;20470;-71
2022/04/07 07:44:36;;;;;;;2.38;0.45;;;;;;;4.01;nan;99961.91;10330616;28;20042;-70
2022/04/07 07:49:37;;;;;;;1.10;0.38;;;;;;;3.96;nan;99948.78;10338520;28;20069;-69
2022/04/07 07:54:39;;;;;;;1.17;0.38;;;;;;;3.92;nan;99922.75;10333348;28;20295;-71
2022/04/07 07:59:41;;;;;;;0.40;0.35;;;;;;;3.86;nan;99905.34;10331897;28;20050;-70
2022/04/07 08:04:42;;;;;;;3.05;0.80;;;;;;;3.93;nan;99930.56;10332851;28;20057;-71
2022/04/07 08:09:44;;;;;;;2.97;0.68;;;;;;;3.99;nan;99955.78;10331151;28;20197;-70
2022/04/07 08:14:46;;;;;;;0.85;0.40;;;;;;;4.08;nan;99992.31;10330646;28;20056;-71
2022/04/07 08:19:52;;;;;;;1.45;0.43;;;;;;;4.10;nan;100001.03;10332304;28;20049;-70
2022/04/07 08:24:55;;;;;;;1.42;0.52;;;;;;;4.10;nan;99995.84;10332294;28;20061;-72
2022/04/07 08:30:02;;;;;;;1.80;0.60;;;;;;;4.20;nan;100034.19;10330457;28;20272;-70
2022/04/07 08:35:05;;;;;;;3.63;0.47;;;;;;;4.22;nan;100042.88;10323603;28;20473;-71
2022/04/07 08:40:07;;;;;;;1.73;1.00;;;;;;;4.27;nan;100061.16;10319289;28;20661;-71
2022/04/07 08:45:09;;;;;;;1.23;0.45;;;;;;;4.31;nan;100077.66;10327338;28;20346;-72
2022/04/07 08:50:12;;;;;;;1.95;0.55;;;;;;;4.29;nan;100058.59;10327095;28;20042;-71
2022/04/07 08:55:14;;;;;;;1.95;0.60;;;;;;;4.29;nan;100064.66;10326930;28;20055;-71
2022/04/07 09:00:16;;;;;;;3.50;0.77;;;;;;;4.31;nan;100075.97;10311120;28;20140;-72
2022/04/07 09:05:23;;;;;;;3.50;0.60;;;;;;;4.22;nan;100031.63;10326311;28;20509;-72
2022/04/07 09:10:28;;;;;;;1.05;0.50;;;;;;;4.22;nan;100034.22;10326815;28;20038;-71
2022/04/07 09:15:30;;;;;;;0.30;0.30;;;;;;;4.09;nan;99982.84;10333574;28;20197;-72
2022/04/07 09:20:42;;;;;;;1.65;0.85;;;;;;;3.94;nan;99915.91;10334996;28;20049;-71
2022/04/07 09:25:46;;;;;;;0.38;0.22;;;;;;;3.70;nan;99834.94;10337664;28;20054;-71
2022/04/07 09:30:51;;;;;;;1.02;0.40;;;;;;;3.60;nan;99783.72;10340052;28;20177;-72
2022/04/07 09:35:57;;;;;;;0.63;0.20;;;;;;;3.57;nan;99765.50;10322868;28;20226;-71
2022/04/07 09:41:20;;;;;;;3.47;0.50;;;;;;;3.49;nan;99746.28;10335661;28;20486;-71
2022/04/07 09:46:22;;;;;;;0.20;0.20;;;;;;;3.47;nan;99738.50;10336877;28;20501;-72
2022/04/07 09:51:25;;;;;;;0.95;0.40;;;;;;;3.48;nan;99739.34;10341778;28;20367;-72
2022/04/07 09:56:28;;;;;;;0.63;0.35;;;;;;;3.65;nan;99799.41;10342686;28;20391;-71
2022/04/07 10:01:30;;;;;;;1.17;0.50;;;;;;;3.94;nan;99911.59;10341156;28;20150;-72
2022/04/07 10:06:35;;;;;;;1.70;0.45;;;;;;;4.28;nan;100047.38;10341317;28;20050;-73
2022/04/07 10:11:37;;;;;;;1.27;0.50;;;;;;;5.23;nan;100435.97;10320713;28;20477;-73
2022/04/07 10:16:38;;;;;;;1.35;0.60;;;;;;;6.21;nan;100839.44;10337125;28;20045;-73
2022/04/07 10:22:07;;;;;;;0.70;0.43;;;;;;;7.12;nan;101204.47;10337709;28;20065;-73
2022/04/07 10:27:10;;;;;;;2.75;1.40;;;;;;;7.48;nan;101361.28;10356510;28;20564;-74
2022/04/07 10:32:12;;;;;;;2.67;0.70;;;;;;;7.87;nan;101521.81;10342505;28;20050;-73
2022/04/07 10:37:14;;;;;;;1.00;0.70;;;;;;;8.07;nan;101603.47;10358581;28;20048;-73
2022/04/07 10:42:15;;;;;;;5.72;1.30;;;;;;;8.35;nan;101725.50;10360361;28;20038;-73
2022/04/07 10:47:26;;;;;;;4.35;1.00;;;;;;;8.63;nan;101839.81;10357075;28;20065;-73
2022/04/07 10:52:28;;;;;;;14.32;4.60;;;;;;;9.03;nan;102007.75;10346325;28;20061;-75
2022/04/07 10:57:30;;;;;;;5.72;1.38;;;;;;;8.97;nan;101979.63;10316636;28;20042;-75
2022/04/07 11:02:32;;;;;;;2.63;0.80;;;;;;;9.22;nan;102081.72;10334433;28;20225;-74
2022/04/07 11:07:37;;;;;;;2.05;0.68;;;;;;;9.30;nan;102114.31;10334787;28;20045;-74
2022/04/07 11:12:43;;;;;;;9.70;1.02;;;;;;;8.98;nan;101976.22;10315968;28;20127;-74
2022/04/07 11:17:45;;;;;;;3.63;0.90;;;;;;;9.19;nan;102070.31;10334666;28;20575;-74
2022/04/07 11:23:06;;;;;;;3.65;1.13;;;;;;;9.47;nan;102177.78;10331533;28;20429;-74
2022/04/07 11:28:25;;;;;;;2.45;1.23;;;;;;;9.69;nan;102276.41;10334495;28;20111;-73
2022/04/07 11:33:28;;;;;;;4.28;1.05;;;;;;;9.96;nan;102385.72;10338521;28;20060;-73
2022/04/07 11:38:33;;;;;;;6.00;1.10;;;;;;;10.15;nan;102472.09;10344954;28;20049;-73
2022/04/07 11:43:38;;;;;;;5.50;0.85;;;;;;;10.41;nan;102574.56;10331712;28;20459;-73
2022/04/07 11:48:40;;;;;;;2.63;1.02;;;;;;;;;;10336431;28;20034;-72
2022/04/07 11:53:44;;;;;;;5.00;1.35;;;;;;;;;;10344471;28;20636;-73
2022/04/07 11:59:03;;;;;;;3.05;1.25;;;;;;;;;;10333814;28;20081;-71
2022/04/07 12:04:05;;;;;;;7.07;1.42;;;;;;;;;;10348042;28;20046;-70
2022/04/07 12:09:14;;;;;;;9.00;2.20;;;;;;;;;;10336348;28;20046;-70
2022/04/07 12:14:15;;;;;;;7.75;1.10;;;;;;;;;;10336163;28;20054;-69
2022/04/07 12:19:18;;;;;;;10.68;1.75;;;;;;;;;;10342394;28;20108;-69
2022/04/07 12:24:20;;;;;;;5.07;0.95;;;;;;;;;;10342569;28;20121;-70
2022/04/07 12:29:26;;;;;;;7.28;1.60;;;;;;;;;;10334120;28;20549;-73
2022/04/07 12:34:27;;;;;;;9.10;1.00;;;;;;;;;;10333096;28;20491;-73
2022/04/07 12:39:32;;;;;;;7.45;1.52;;;;;;;;;;10333456;28;20410;-71
2022/04/07 12:44:34;;;;;;;9.75;1.40;;;;;;;;;;10314577;28;20046;-72
2022/04/07 12:49:37;;;;;;;13.52;1.42;;;;;;;;;;10338668;28;20038;-73
2022/04/07 12:54:55;;;;;;;6.30;1.38;;;;;;;;;;10321313;28;20660;-72
2022/04/07 12:59:58;;;;;;;6.60;1.23;;;;;;;9.67;nan;102220.53;10336267;28;20335;-73
2022/04/07 13:05:00;;;;;;;4.80;1.38;;;;;;;10.27;nan;102472.66;10333692;28;20655;-74
2022/04/07 13:10:02;;;;;;;8.98;1.98;;;;;;;10.05;nan;102373.06;10337467;28;20046;-76
2022/04/07 13:15:08;;;;;;;7.15;1.58;;;;;;;10.35;nan;102493.09;10341221;28;20524;-75
2022/04/07 13:20:10;;;;;;;8.18;1.35;;;;;;;10.54;nan;102562.94;10316294;28;20046;-75
2022/04/07 13:25:12;;;;;;;11.23;1.67;;;;;;;10.63;nan;102607.88;10334072;28;20049;-73
2022/04/07 13:30:14;;;;;;;10.23;1.73;;;;;;;10.82;nan;102682.06;10339015;28;20072;-73
2022/04/07 13:35:19;;;;;;;13.95;1.80;;;;;;;10.69;nan;102629.13;10337621;28;20535;-74
2022/04/07 13:40:25;;;;;;;9.65;2.65;;;;;;;10.70;nan;102630.88;10355004;28;20049;-73
2022/04/07 13:45:32;;;;;;;6.38;1.23;;;;;;;10.49;nan;102538.22;10357370;28;20046;-73
2022/04/07 13:50:34;;;;;;;6.57;1.40;;;;;;;10.15;nan;102388.34;10361444;28;20137;-71
2022/04/07 13:55:36;;;;;;;11.05;1.85;;;;;;;9.86;nan;102254.50;10357490;28;20124;-71
2022/04/07 14:00:39;;;;;;;7.32;1.27;;;;;;;9.46;nan;102090.63;10353844;28;20505;-71
2022/04/07 14:05:40;;;;;;;9.65;1.13;;;;;;;6.65;nan;100925.97;10339641;28;20049;-70
2022/04/07 14:10:42;;;;;;;9.75;3.33;;;;;;;6.32;nan;100788.66;10344935;28;20050;-69
2022/04/07 14:15:45;;;;;;;6.60;1.60;;;;;;;6.71;nan;100941.78;10356781;28;20069;-71
2022/04/07 14:20:47;;;;;;;12.30;3.53;;;;;;;7.04;nan;101076.56;10358857;28;20034;-71
2022/04/07 14:25:49;;;;;;;10.07;3.38;;;;;;;7.48;nan;101251.84;10360795;28;20046;-72
2022/04/07 14:30:53;;;;;;;4.15;1.05;;;;;;;7.88;nan;101414.97;10358467;28;20058;-75
2022/04/07 14:35:55;;;;;;;4.18;1.48;;;;;;;7.48;nan;101246.63;10354807;28;20042;-75
2022/04/07 14:40:56;;;;;;;6.88;1.45;;;;;;;7.21;nan;101130.16;10358457;28;20072;-75
2022/04/07 14:45:58;;;;;;;8.02;2.55;;;;;;;6.91;nan;101004.97;10357149;28;20042;-72
2022/04/07 14:50:59;;;;;;;4.50;1.88;;;;;;;6.53;nan;100850.97;10355359;28;20069;-73
2022/04/07 14:56:01;;;;;;;9.45;1.63;;;;;;;6.12;nan;100678.81;10358460;28;20513;-70
2022/04/07 15:01:04;;;;;;;3.63;0.90;;;;;;;6.57;nan;100854.56;10358443;28;20046;-70
2022/04/07 15:06:06;;;;;;;6.03;1.27;;;;;;;6.65;nan;100890.44;10357857;28;20514;-71
2022/04/07 15:11:08;;;;;;;2.20;0.88;;;;;;;6.65;nan;100890.44;10357476;28;20544;-71
2022/04/07 15:16:11;;;;;;;2.17;1.25;;;;;;;6.30;nan;100747.00;10351383;28;20074;-71
2022/04/07 15:21:13;;;;;;;3.78;0.98;;;;;;;5.98;nan;100613.38;10329828;28;20129;-72
2022/04/07 15:26:14;;;;;;;5.32;1.10;;;;;;;5.91;nan;100587.97;10322764;28;20052;-70
2022/04/07 15:31:17;;;;;;;3.33;1.00;;;;;;;5.86;nan;100558.38;10337965;28;20117;-71
2022/04/07 15:36:18;;;;;;;2.05;0.60;;;;;;;5.82;nan;100547.88;10347808;28;20041;-71
2022/04/07 15:41:23;;;;;;;10.85;2.40;;;;;;;5.97;nan;100611.59;10356172;28;20046;-74
2022/04/07 15:46:24;;;;;;;8.02;1.40;;;;;;;6.19;nan;100694.66;10329250;28;20053;-72
2022/04/07 15:51:28;;;;;;;2.72;1.33;;;;;;;6.55;nan;100833.69;10356486;28;20076;-72
2022/04/07 15:56:30;;;;;;;3.05;1.23;;;;;;;6.87;nan;100962.31;10356465;28;20053;-72
2022/04/07 16:01:32;;;;;;;3.78;1.35;;;;;;;7.01;nan;101020.09;10358255;28;20045;-74
2022/04/07 16:06:34;;;;;;;8.63;2.10;;;;;;;6.80;nan;100931.72;10355343;28;20038;-74
2022/04/07 16:11:36;;;;;;;7.00;1.40;;;;;;;6.65;nan;100874.81;10339774;28;20419;-73
2022/04/07 16:16:37;;;;;;;4.43;1.15;;;;;;;6.47;nan;100802.22;10354632;28;20116;-72
2022/04/07 16:21:40;;;;;;;6.25;0.93;;;;;;;6.39;nan;100766.38;10356427;28;20061;-72
2022/04/07 16:26:42;;;;;;;11.85;2.25;;;;;;;6.30;nan;100725.34;10338531;28;20100;-72
2022/04/07 16:31:44;;;;;;;12.70;6.20;;;;;;;6.29;nan;100720.97;10354705;28;20034;-73
2022/04/07 16:36:47;;;;;;;44.75;13.02;;;;;;;6.42;nan;100771.69;10337517;28;20065;-74
2022/04/07 16:41:48;;;;;;;16.63;4.13;;;;;;;6.46;nan;100786.56;10339830;28;20541;-73
2022/04/07 16:46:50;;;;;;;8.73;3.17;;;;;;;6.53;nan;100818.03;10359095;28;20097;-73
2022/04/07 16:51:55;;;;;;;10.77;1.85;;;;;;;6.62;nan;100851.31;10341954;28;20089;-74
2022/04/07 16:56:57;;;;;;;3.58;1.50;;;;;;;6.85;nan;100943.16;10342390;28;20056;-73
2022/04/07 17:01:58;;;;;;;8.38;1.92;;;;;;;6.92;nan;100969.41;10358206;28;20127;-74
2022/04/07 17:07:05;;;;;;;13.40;2.00;;;;;;;7.07;nan;101032.41;10341895;28;20532;-73
2022/04/07 17:12:14;;;;;;;5.95;2.08;;;;;;;7.10;nan;101042.97;10369465;28;20042;-71
2022/04/07 17:17:15;;;;;;;9.80;1.65;;;;;;;6.99;nan;101003.50;10365365;28;20345;-71
2022/04/07 17:22:18;;;;;;;5.53;2.17;;;;;;;7.00;nan;101007.03;10359274;28;20417;-71
2022/04/07 17:27:20;;;;;;;8.02;2.15;;;;;;;6.94;nan;100976.44;10327310;28;20049;-74
2022/04/07 17:32:21;;;;;;;6.05;1.90;;;;;;;6.74;nan;100892.47;10325618;28;20437;-74
2022/04/07 17:37:24;;;;;;;24.55;7.25;;;;;;;6.57;nan;100823.34;10347337;28;20505;-73
2022/04/07 17:42:26;;;;;;;11.65;2.08;;;;;;;6.49;nan;100790.16;10340849;28;20490;-74
2022/04/07 17:47:32;;;;;;;8.45;1.40;;;;;;;6.47;nan;100775.31;10349703;28;20080;-72
2022/04/07 17:52:52;;;;;;;7.20;2.13;;;;;;;6.43;nan;100763.94;10343741;28;20065;-72
2022/04/07 17:57:59;;;;;;;9.35;2.60;;;;;;;6.44;nan;100760.50;10342036;28;20103;-74
2022/04/07 18:03:01;;;;;;;10.40;2.03;;;;;;;6.41;nan;100750.00;10348953;28;20054;-74
2022/04/07 18:08:03;;;;;;;6.70;2.22;;;;;;;6.38;nan;100734.28;10350438;28;20037;-73
2022/04/07 18:13:08;;;;;;;14.35;5.60;;;;;;;6.30;nan;100707.13;10352599;28;20053;-73
2022/04/07 18:18:09;;;;;;;8.77;2.92;;;;;;;6.18;nan;100650.41;10352692;28;20761;-73
2022/04/07 18:23:14;;;;;;;5.50;2.03;;;;;;;6.06;nan;100601.50;10343384;28;20053;-71
2022/04/07 18:28:16;;;;;;;6.85;2.35;;;;;;;5.95;nan;100550.84;10340660;28;20046;-73
2022/04/07 18:33:18;;;;;;;2.10;0.88;;;;;;;5.79;nan;100494.91;10356045;28;20053;-73
2022/04/07 18:38:20;;;;;;;3.42;1.50;;;;;;;5.66;nan;100442.56;10357400;28;20081;-73
2022/04/07 18:43:22;;;;;;;6.70;1.48;;;;;;;5.64;nan;100428.66;10359145;28;20053;-73
2022/04/07 18:48:23;;;;;;;4.18;1.42;;;;;;;5.66;nan;100439.09;10357279;28;20038;-74
2022/04/07 18:53:25;;;;;;;8.55;1.88;;;;;;;5.59;nan;100403.38;10359480;28;20057;-74
2022/04/07 18:58:31;;;;;;;6.30;2.05;;;;;;;5.36;nan;100310.06;10353680;28;20165;-71
2022/04/07 19:03:33;;;;;;;7.57;1.40;;;;;;;5.31;nan;100293.44;10356658;28;20509;-71
2022/04/07 19:08:35;;;;;;;5.35;1.58;;;;;;;5.34;nan;100300.44;10356100;28;20694;-71
2022/04/07 19:13:36;;;;;;;5.25;1.35;;;;;;;5.41;nan;100317.97;10355568;28;20050;-73
2022/04/07 19:18:38;;;;;;;4.55;0.93;;;;;;;5.43;nan;100334.47;10357121;28;20034;-73
2022/04/07 19:23:40;;;;;;;3.97;1.17;;;;;;;5.42;nan;100336.19;10343833;28;20065;-73
2022/04/07 19:28:42;;;;;;;3.58;1.13;;;;;;;5.48;nan;100351.97;10356761;28;20033;-73
2022/04/07 19:33:47;;;;;;;5.63;1.33;;;;;;;5.59;nan;100405.97;10356194;28;20065;-73
2022/04/07 19:38:51;;;;;;;4.18;1.33;;;;;;;5.65;nan;100419.13;10357945;28;20038;-73
2022/04/07 19:43:53;;;;;;;7.57;1.10;;;;;;;5.69;nan;100444.38;10356161;28;20469;-74
2022/04/07 19:48:54;;;;;;;2.85;0.93;;;;;;;5.70;nan;100443.53;10359406;28;20125;-72
2022/04/07 19:53:56;;;;;;;2.90;1.30;;;;;;;5.70;nan;100451.31;10358302;28;20034;-74
2022/04/07 19:58:58;;;;;;;2.72;0.90;;;;;;;5.65;nan;100425.19;10377013;28;20045;-71
2022/04/07 20:04:01;;;;;;;3.25;1.02;;;;;;;5.53;nan;100372.00;10364007;28;20103;-72
2022/04/07 20:09:04;;;;;;;3.22;0.82;;;;;;;5.54;nan;100376.34;10359660;28;20497;-73
2022/04/07 20:14:05;;;;;;;7.25;1.27;;;;;;;5.57;nan;100387.72;10357384;28;20073;-73
2022/04/07 20:19:10;;;;;;;6.20;1.05;;;;;;;5.60;nan;100402.50;10358417;28;20045;-72
2022/04/07 20:24:12;;;;;;;7.20;1.33;;;;;;;5.62;nan;100399.13;10351858;28;20502;-73
2022/04/07 20:29:14;;;;;;;8.75;1.65;;;;;;;5.63;nan;100411.28;10358652;28;20045;-73
2022/04/07 20:34:16;;;;;;;5.38;1.40;;;;;;;5.60;nan;100398.22;10358267;28;20073;-69
2022/04/07 20:39:18;;;;;;;6.35;1.58;;;;;;;5.49;nan;100350.25;10358744;28;20038;-69
2022/04/07 20:44:20;;;;;;;5.78;1.42;;;;;;;5.48;nan;100348.50;10357982;28;20192;-71
2022/04/07 20:49:21;;;;;;;10.15;1.58;;;;;;;5.52;nan;100362.44;10357767;28;20073;-71
2022/04/07 20:54:23;;;;;;;8.90;1.55;;;;;;;5.48;nan;100340.72;10356538;28;20061;-70
2022/04/07 20:59:25;;;;;;;10.50;1.95;;;;;;;5.46;nan;100345.84;10357049;28;20080;-70
2022/04/07 21:04:27;;;;;;;9.82;1.42;;;;;;;5.40;nan;100311.88;10357512;28;20073;-71
2022/04/07 21:09:29;;;;;;;9.80;1.55;;;;;;;5.41;nan;100316.25;10358276;28;20145;-71
2022/04/07 21:14:31;;;;;;;6.20;1.48;;;;;;;5.45;nan;100331.09;10357056;28;20046;-71
2022/04/07 21:19:33;;;;;;;9.43;1.00;;;;;;;5.44;nan;100323.25;10356781;28;20656;-72
2022/04/07 21:24:35;;;;;;;8.35;1.30;;;;;;;5.48;nan;100348.50;10356692;28;20084;-70
2022/04/07 21:29:36;;;;;;;12.65;1.35;;;;;;;5.52;nan;100349.47;10356471;28;20484;-71
2022/04/07 21:34:38;;;;;;;6.93;1.48;;;;;;;5.51;nan;100345.09;10356404;28;20597;-71
2022/04/07 21:39:39;;;;;;;4.45;1.23;;;;;;;5.46;nan;100331.97;10356553;28;20045;-72
2022/04/07 21:44:41;;;;;;;10.30;1.77;;;;;;;5.48;nan;100338.13;10356304;28;20402;-73
2022/04/07 21:49:43;;;;;;;6.97;1.23;;;;;;;5.45;nan;100336.28;10356235;28;21209;-71
2022/04/07 21:54:45;;;;;;;8.48;1.23;;;;;;;5.44;nan;100326.72;10356399;28;20049;-71
2022/04/07 21:59:46;;;;;;;6.40;1.20;;;;;;;5.36;nan;100293.56;10355873;28;20046;-72
2022/04/07 22:04:48;;;;;;;14.05;1.95;;;;;;;5.36;nan;100294.47;10357283;28;20081;-72
2022/04/07 22:09:51;;;;;;;8.63;1.88;;;;;;;5.43;nan;100316.28;10361895;28;20046;-72
2022/04/07 22:14:53;;;;;;;2.63;1.00;;;;;;;5.40;nan;100305.81;10363061;28;20061;-71
2022/04/07 22:19:55;;;;;;;5.18;0.90;;;;;;;5.36;nan;100290.97;10363227;28;20046;-70
2022/04/07 22:24:56;;;;;;;8.43;1.50;;;;;;;5.28;nan;100249.22;10361727;28;20098;-70
2022/04/07 22:29:58;;;;;;;6.32;1.02;;;;;;;5.09;nan;100182.91;10361888;28;20076;-70
2022/04/07 22:34:59;;;;;;;3.67;1.00;;;;;;;4.83;nan;100073.16;10362379;28;20081;-70
2022/04/07 22:40:01;;;;;;;3.20;0.50;;;;;;;4.63;nan;99994.78;10362293;28;20085;-70
2022/04/07 22:45:03;;;;;;;1.05;0.25;;;;;;;4.59;nan;99978.25;10361597;28;21336;-71
2022/04/07 22:50:07;;;;;;;3.05;0.82;;;;;;;4.58;nan;99979.97;10361212;28;21913;-71
2022/04/07 22:55:10;;;;;;;3.97;0.85;;;;;;;4.63;nan;99989.59;10361936;28;20077;-71
2022/04/07 23:00:15;;;;;;;7.57;1.05;;;;;;;4.69;nan;100019.19;10365505;28;20438;-71
2022/04/07 23:05:17;;;;;;;10.93;1.60;;;;;;;4.72;nan;100033.94;10361731;28;20077;-71
2022/04/07 23:10:19;;;;;;;4.13;0.90;;;;;;;4.71;nan;100022.69;10361897;28;20137;-71
2022/04/07 23:15:22;;;;;;;3.33;0.98;;;;;;;4.68;nan;100016.53;10360950;28;20069;-71
2022/04/07 23:20:25;;;;;;;11.65;1.38;;;;;;;4.67;nan;100013.06;10342986;28;20049;-71
2022/04/07 23:25:27;;;;;;;3.83;0.82;;;;;;;4.67;nan;100010.47;10361169;28;20041;-72
2022/04/07 23:30:28;;;;;;;4.63;0.95;;;;;;;4.70;nan;100023.53;10360947;28;20034;-72
2022/04/07 23:35:30;;;;;;;4.35;0.93;;;;;;;4.63;nan;99998.25;10361467;28;20049;-72
2022/04/07 23:40:32;;;;;;;4.30;1.42;;;;;;;4.59;nan;99976.56;10360307;28;20060;-72
2022/04/07 23:45:34;;;;;;;8.63;1.08;;;;;;;4.57;nan;99972.16;10360807;28;20085;-72
2022/04/07 23:50:35;;;;;;;5.60;0.80;;;;;;;4.54;nan;99951.34;10360249;28;20042;-72
2022/04/07 23:55:37;;;;;;;9.25;0.93;;;;;;;4.48;nan;99936.47;10361198;28;20041;-72
